Have a Safe July 4th! 

Flight Track Log - Related Links

Times and Time Zones

All times are in EDT time to prevent confusion due to time zone crossing. See the SWA1223 flight status page for this flight to view local times or setup timezone preferences in your user account.

Time Position Orientation Groundspeed Altitude Reporting Facility
EDT Latitude Longitude Course Direction KTS MPH feet Rate Location/Type
Wed 02:21:17 PM 33.4333 -112.0167 239° Southwest 170 196 1,700  Level Phoenix TRACON
Wed 02:21:54 PM 33.4167 -112.0500 239° Southwest 175 201 2,700 2,165 Climbing Phoenix TRACON
Wed 02:22:54 PM 33.4000 -112.1167 253° West 208 239 5,200 2,240 Climbing Phoenix TRACON
Wed 02:23:09 PM 33.3975 -112.1306 258° West 209 241 5,500 2,211 Climbing Albuquerque Center
Wed 02:24:10 PM 33.3447 -112.0933 149° Southeast 285 328 8,000 2,878 Climbing Albuquerque Center
Wed 02:25:12 PM 33.3489 -111.9947 87° East 301 346 11,400 2,976 Climbing Albuquerque Center
Wed 02:26:13 PM 33.3744 -111.8969 73° East 310 357 14,100 2,195 Climbing Albuquerque Center
Wed 02:27:15 PM 33.4031 -111.7819 73° East 365 420 15,900 2,032 Climbing Albuquerque Center
Wed 02:28:17 PM 33.4414 -111.6275 73° East 408 470 18,300 2,098 Climbing Albuquerque Center
Wed 02:29:18 PM 33.4767 -111.4819 74° East 454 522 20,200 2,049 Climbing Albuquerque Center
Wed 02:30:20 PM 33.5094 -111.3256 76° East 486 559 22,500 2,146 Climbing Albuquerque Center
Wed 02:31:21 PM 33.5264 -111.1633 83° East 493 567 24,600 1,951 Climbing Albuquerque Center
Wed 02:32:23 PM 33.5436 -110.9953 83° East 510 587 26,500 1,742 Climbing Albuquerque Center
Wed 02:33:25 PM 33.5778 -110.8244 76° East 524 603 28,200 1,561 Climbing Albuquerque Center
Wed 02:34:26 PM 33.6433 -110.6236 69° East 536 617 29,700 1,366 Climbing Albuquerque Center
Wed 02:35:28 PM 33.6989 -110.4503 69° East 551 634 31,000 1,366 Climbing Albuquerque Center
Wed 02:36:29 PM 33.7522 -110.2817 69° East 565 650 32,500 1,415 Climbing Albuquerque Center
Wed 02:37:31 PM 33.8092 -110.1050 69° East 569 655 33,900 1,403 Climbing Albuquerque Center
Wed 02:38:33 PM 33.8778 -109.8908 69° East 573 659 35,400 1,512 Climbing Albuquerque Center
Wed 02:39:34 PM 33.9336 -109.7136 69° East 571 657 37,000 780 Climbing Albuquerque Center
Wed 02:40:36 PM 33.9875 -109.5411 69° East 562 647 37,000  Level Albuquerque Center
Wed 02:41:38 PM 34.0417 -109.3689 69° East 554 638 37,000  Level Albuquerque Center
Wed 02:42:39 PM 34.0953 -109.1967 69° East 552 635 37,000  Level Albuquerque Center
Wed 02:43:41 PM 34.1486 -109.0242 69° East 552 635 37,000  Level Albuquerque Center
Wed 02:44:43 PM 34.2011 -108.8533 70° East 550 633 37,000  Level Albuquerque Center
Wed 02:45:44 PM 34.2633 -108.6453 70° East 551 634 37,000  Level Albuquerque Center
Wed 02:46:46 PM 34.3064 -108.4711 73° East 550 633 37,000  Level Albuquerque Center
Wed 02:47:48 PM 34.3517 -108.2947 73° East 552 635 37,000  Level Albuquerque Center
Wed 02:48:50 PM 34.3956 -108.1161 73° East 554 638 37,000  Level Albuquerque Center
Wed 02:49:51 PM 34.4394 -107.9394 73° East 552 635 37,000  Level Albuquerque Center
Wed 02:50:53 PM 34.4825 -107.7642 73° East 547 629 37,000  Level Albuquerque Center
Wed 02:51:55 PM 34.5331 -107.5528 74° East 546 628 37,000  Level Albuquerque Center
Wed 02:52:57 PM 34.5764 -107.3756 73° East 548 631 37,000  Level Albuquerque Center
Wed 02:53:58 PM 34.6181 -107.1997 74° East 547 629 37,000  Level Albuquerque Center
Wed 02:55:00 PM 34.6597 -107.0242 74° East 547 629 37,000  Level Albuquerque Center
Wed 02:56:02 PM 34.7006 -106.8492 74° East 546 628 37,000  Level Albuquerque Center
Wed 02:57:04 PM 34.7503 -106.6381 74° East 548 631 37,000  Level Albuquerque Center
Wed 02:58:06 PM 34.7917 -106.4608 74° East 549 632 37,000  Level Albuquerque Center
Wed 02:59:08 PM 34.8319 -106.2844 74° East 548 631 37,000  Level Albuquerque Center
Wed 03:00:10 PM 34.8711 -106.1086 75° East 545 627 37,000  Level Albuquerque Center
Wed 03:01:12 PM 34.9117 -105.9333 74° East 541 623 37,000  Level Albuquerque Center
Wed 03:02:14 PM 34.9558 -105.7319 75° East 537 618 37,000  Level Albuquerque Center
Wed 03:03:16 PM 34.9981 -105.5569 74° East 534 615 37,000  Level Albuquerque Center
Wed 03:04:18 PM 35.0358 -105.3794 75° East 536 617 37,000  Level Albuquerque Center
Wed 03:05:20 PM 35.0758 -105.2022 75° East 536 617 37,000 48 Level Albuquerque Center
Wed 03:06:22 PM 35.1339 -105.0314 67° East 536 617 37,100  Climbing Albuquerque Center
Wed 03:07:24 PM 35.2119 -104.8369 64° Northeast 540 621 37,000 -48 Descending Albuquerque Center
Wed 03:08:26 PM 35.2764 -104.6689 65° Northeast 538 619 37,000  Level Albuquerque Center
Wed 03:09:28 PM 35.3369 -104.5192 64° Northeast 541 623 37,000  Level Albuquerque Center
Wed 03:10:30 PM 35.4083 -104.3311 65° Northeast 538 619 37,000  Level Albuquerque Center
Wed 03:11:32 PM 35.4736 -104.1606 65° Northeast 537 618 37,000  Level Albuquerque Center
Wed 03:12:34 PM 35.5386 -103.9919 65° Northeast 537 618 37,000  Level Albuquerque Center
Wed 03:13:36 PM 35.6014 -103.8261 65° Northeast 532 612 37,000  Level Albuquerque Center
Wed 03:14:38 PM 35.6650 -103.6597 65° Northeast 532 612 37,000  Level Albuquerque Center
Wed 03:15:40 PM 35.7267 -103.4939 65° Northeast 528 608 37,000 194 Level Albuquerque Center
Wed 03:16:42 PM 35.7903 -103.3267 65° Northeast 532 612 37,400 629 Climbing Albuquerque Center
Wed 03:17:44 PM 35.8636 -103.1278 65° Northeast 540 621 38,300 774 Climbing Albuquerque Center
Wed 03:18:46 PM 35.9261 -102.9583 65° Northeast 539 620 39,000 339 Climbing Albuquerque Center
Wed 03:19:48 PM 35.9878 -102.7942 65° Northeast 535 616 39,000  Level Albuquerque Center
Wed 03:20:49 PM 36.0478 -102.6281 66° East 530 610 39,000  Level Albuquerque Center
Wed 03:21:51 PM 36.1081 -102.4608 66° East 531 611 39,000  Level Albuquerque Center
Wed 03:22:53 PM 36.1681 -102.2964 66° East 526 605 39,000  Level Albuquerque Center
Wed 03:23:55 PM 36.2281 -102.1308 66° East 525 604 39,000  Level Albuquerque Center
Wed 03:24:57 PM 36.2986 -101.9344 66° East 521 600 39,000  Level Albuquerque Center
Wed 03:25:59 PM 36.3575 -101.7700 66° East 521 600 39,000  Level Albuquerque Center
Wed 03:27:01 PM 36.4158 -101.6061 66° East 519 597 39,000  Level Albuquerque Center
Wed 03:28:03 PM 36.4756 -101.4344 67° East 520 598 39,000  Level Albuquerque Center
Wed 03:29:05 PM 36.5308 -101.2789 66° East 517 595 39,000  Level Albuquerque Center
Wed 03:30:07 PM 36.5942 -101.0969 67° East 516 594 39,000  Level Albuquerque Center
Wed 03:30:55 PM 36.6383 -100.9689 67° East 512 589 39,000  Level Kansas City Center
Wed 03:31:56 PM 36.6928 -100.8133 66° East 513 590 39,000  Level Kansas City Center
Wed 03:32:57 PM 36.7547 -100.6294 67° East 516 594 39,000  Level Kansas City Center
Wed 03:34:01 PM 36.8086 -100.4739 67° East 515 593 39,000  Level Kansas City Center
Wed 03:35:02 PM 36.8669 -100.3222 64° Northeast 510 587 39,000  Level Kansas City Center
Wed 03:36:03 PM 36.9494 -100.1567 58° Northeast 505 581 39,000  Level Kansas City Center
Wed 03:37:07 PM 37.0206 -100.0158 58° Northeast 504 580 39,000  Level Kansas City Center
Wed 03:38:08 PM 37.1033 -99.8522 58° Northeast 501 577 39,000  Level Kansas City Center
Wed 03:39:09 PM 37.1747 -99.7133 57° Northeast 498 573 39,000  Level Kansas City Center
Wed 03:40:10 PM 37.2578 -99.5525 57° Northeast 495 570 39,000  Level Kansas City Center
Wed 03:41:14 PM 37.3350 -99.4047 57° Northeast 496 571 39,000  Level Kansas City Center
Wed 03:42:15 PM 37.4117 -99.2611 56° Northeast 496 571 39,000  Level Kansas City Center
Wed 03:43:15 PM 37.4878 -99.1225 55° Northeast 487 560 39,000  Level Kansas City Center
Wed 03:44:19 PM 37.5706 -98.9928 51° Northeast 479 551 39,000  Level Kansas City Center
Wed 03:45:20 PM 37.6614 -98.8728 46° Northeast 475 547 39,000  Level Kansas City Center
Wed 03:46:24 PM 37.7275 -98.7325 59° Northeast 475 547 39,000  Level Kansas City Center
Wed 03:47:24 PM 37.7472 -98.5431 82° East 457 526 39,000  Level Kansas City Center
Wed 03:48:25 PM 37.7497 -98.3783 89° East 466 536 39,000  Level Kansas City Center
Wed 03:49:28 PM 37.7428 -98.2119 93° East 475 547 39,000  Level Kansas City Center
Wed 03:50:29 PM 37.7381 -98.0494 92° East 472 543 39,000  Level Kansas City Center
Wed 03:51:30 PM 37.7419 -97.8831 88° East 472 543 39,000  Level Kansas City Center
Wed 03:52:34 PM 37.7467 -97.7092 88° East 484 557 39,000  Level Kansas City Center
Wed 03:53:34 PM 37.7700 -97.5061 82° East 488 562 39,000  Level Kansas City Center
Wed 03:54:38 PM 37.8131 -97.3517 71° East 506 582 39,000  Level Kansas City Center
Wed 03:55:38 PM 37.8533 -97.1814 73° East 507 583 39,000  Level Kansas City Center
Wed 03:56:42 PM 37.8919 -97.0114 74° East 506 582 39,000  Level Kansas City Center
Wed 03:57:42 PM 37.9392 -96.8058 74° East 507 583 39,000  Level Kansas City Center
Wed 03:58:44 PM 37.9781 -96.6378 74° East 500 575 39,000  Level Kansas City Center
Wed 03:59:47 PM 38.0161 -96.4711 74° East 495 570 39,000  Level Kansas City Center
Wed 04:00:49 PM 38.0536 -96.3025 74° East 496 571 39,000  Level Kansas City Center
Wed 04:01:49 PM 38.0953 -96.1172 74° East 496 571 39,000  Level Kansas City Center
Wed 04:02:53 PM 38.1061 -95.9556 85° East 488 562 39,000  Level Kansas City Center
Wed 04:03:54 PM 38.0583 -95.7794 109° East 475 547 39,000  Level Kansas City Center
Wed 04:04:55 PM 38.0161 -95.6283 109° East 476 548 39,000  Level Kansas City Center
Wed 04:05:58 PM 37.9669 -95.4494 109° East 481 554 39,000  Level Kansas City Center
Wed 04:07:00 PM 37.9297 -95.3139 109° East 479 551 39,000  Level Kansas City Center
Wed 04:08:00 PM 37.8775 -95.1283 110° East 469 540 39,000  Level Kansas City Center
Wed 04:09:02 PM 37.8353 -94.9769 109° East 469 540 39,000  Level Kansas City Center
Wed 04:10:05 PM 37.7928 -94.8289 110° East 471 542 39,000  Level Kansas City Center
Wed 04:11:06 PM 37.7419 -94.6528 110° East 476 548 39,000  Level Kansas City Center
Wed 04:12:10 PM 37.6992 -94.5017 110° East 478 550 39,000  Level Kansas City Center
Wed 04:13:11 PM 37.6528 -94.3397 110° East 477 549 39,000  Level Kansas City Center
Wed 04:14:12 PM 37.6078 -94.1839 110° East 474 545 39,000  Level Kansas City Center
Wed 04:15:16 PM 37.5597 -94.0175 110° East 474 545 39,000  Level Kansas City Center
Wed 04:16:17 PM 37.5142 -93.8622 110° East 474 545 39,000  Level Kansas City Center
Wed 04:17:17 PM 37.4581 -93.6750 111° Southeast 475 547 39,000  Level Kansas City Center
Wed 04:18:21 PM 37.4111 -93.5217 111° Southeast 473 544 39,000  Level Kansas City Center
Wed 04:19:22 PM 37.3647 -93.3644 110° East 476 548 39,000  Level Kansas City Center
Wed 04:20:23 PM 37.4069 -93.2078 71° East 485 558 39,000  Level Kansas City Center
Wed 04:21:27 PM 37.4669 -93.0556 64° Northeast 486 559 39,000  Level Kansas City Center
Wed 04:22:27 PM 37.5253 -92.9053 64° Northeast 482 555 39,000  Level Kansas City Center
Wed 04:23:29 PM 37.5833 -92.7544 64° Northeast 479 551 39,000  Level Kansas City Center
Wed 04:24:32 PM 37.6511 -92.5756 64° Northeast 476 548 39,000  Level Kansas City Center
Wed 04:25:33 PM 37.7089 -92.4269 64° Northeast 480 552 39,000  Level Kansas City Center
Wed 04:26:37 PM 37.7658 -92.2789 64° Northeast 476 548 39,000  Level Kansas City Center
Wed 04:27:38 PM 37.8200 -92.1306 65° Northeast 469 540 39,000  Level Kansas City Center
Wed 04:28:40 PM 37.8881 -91.9539 64° Northeast 472 543 39,000  Level Kansas City Center
Wed 04:29:43 PM 37.9450 -91.8039 64° Northeast 474 545 39,000  Level Kansas City Center
Wed 04:30:45 PM 38.0025 -91.6533 64° Northeast 475 547 39,000  Level Kansas City Center
Wed 04:31:45 PM 38.0583 -91.5019 65° Northeast 474 545 39,000  Level Kansas City Center
Wed 04:32:47 PM 38.1153 -91.3533 64° Northeast 470 541 39,000  Level Kansas City Center
Wed 04:33:51 PM 38.1708 -91.2008 65° Northeast 470 541 39,000  Level Kansas City Center
Wed 04:34:52 PM 38.2247 -91.0519 65° Northeast 467 537 39,000  Level Kansas City Center
Wed 04:35:53 PM 38.2903 -90.8731 65° Northeast 465 535 39,000  Level Kansas City Center
Wed 04:36:56 PM 38.3436 -90.7253 65° Northeast 463 533 39,000  Level Kansas City Center
Wed 04:37:59 PM 38.3969 -90.5775 65° Northeast 463 533 39,000  Level Kansas City Center
Wed 04:38:59 PM 38.4508 -90.4272 65° Northeast 461 531 39,000  Level Kansas City Center
Wed 04:40:04 PM 38.5028 -90.2825 65° Northeast 466 536 39,000  Level Kansas City Center
Wed 04:41:04 PM 38.5664 -90.1061 65° Northeast 464 534 39,000  Level Kansas City Center
Wed 04:42:06 PM 38.6189 -89.9592 65° Northeast 462 532 39,000  Level Kansas City Center
Wed 04:43:08 PM 38.6714 -89.8097 66° East 464 534 39,000  Level Kansas City Center
Wed 04:44:10 PM 38.7308 -89.6428 65° Northeast 465 535 39,000  Level Kansas City Center
Wed 04:45:12 PM 38.7872 -89.4817 66° East 462 532 39,000  Level Kansas City Center
Wed 04:46:16 PM 38.8378 -89.3325 66° East 458 527 39,000  Level Kansas City Center
Wed 04:47:17 PM 38.8936 -89.1769 65° Northeast 447 514 39,000  Level Kansas City Center
Wed 04:48:18 PM 38.9428 -89.0306 67° East 446 513 39,000  Level Kansas City Center
Wed 04:49:22 PM 38.9914 -88.8983 65° Northeast 447 514 39,000  Level Kansas City Center
Wed 04:50:22 PM 39.0408 -88.7522 66° East 448 516 39,000  Level Kansas City Center
Wed 04:51:23 PM 39.0939 -88.5933 67° East 446 513 39,000  Level Kansas City Center
Wed 04:52:27 PM 39.1439 -88.4469 66° East 446 513 39,000  Level Kansas City Center
Wed 04:53:28 PM 39.1928 -88.2972 67° East 449 517 39,000  Level Kansas City Center
Wed 04:54:31 PM 39.2511 -88.1192 67° East 448 516 39,000  Level Kansas City Center
Wed 04:55:32 PM 39.3033 -87.9661 66° East 457 526 39,000  Level Kansas City Center
Wed 04:56:26 PM 39.3400 -87.8481 68° East 454 522 39,000  Level Indianapolis Center
Wed 04:57:28 PM 39.3906 -87.6939 67° East 459 528 39,000  Level Indianapolis Center
Wed 04:58:30 PM 39.4400 -87.5411 67° East 459 528 39,000  Level Indianapolis Center
Wed 04:59:32 PM 39.5006 -87.3544 67° East 466 536 39,000  Level Indianapolis Center
Wed 05:00:33 PM 39.5503 -87.2036 67° East 457 526 39,000  Level Indianapolis Center
Wed 05:01:35 PM 39.5981 -87.0511 68° East 455 524 39,000  Level Indianapolis Center
Wed 05:02:37 PM 39.6467 -86.8983 68° East 455 524 39,000  Level Indianapolis Center
Wed 05:03:39 PM 39.6886 -86.7436 71° East 455 524 39,000  Level Indianapolis Center
Wed 05:04:41 PM 39.7186 -86.5814 76° East 460 529 39,000  Level Indianapolis Center
Wed 05:05:43 PM 39.7481 -86.4197 77° East 459 528 39,000  Level Indianapolis Center
Wed 05:06:45 PM 39.7858 -86.2597 73° East 460 529 39,000  Level Indianapolis Center
Wed 05:07:46 PM 39.8331 -86.0683 72° East 462 532 39,000  Level Indianapolis Center
Wed 05:08:48 PM 39.8656 -85.9181 74° East 467 537 39,000  Level Indianapolis Center
Wed 05:09:50 PM 39.9042 -85.7553 73° East 467 537 39,000  Level Indianapolis Center
Wed 05:10:52 PM 39.9414 -85.5942 73° East 463 533 39,000  Level Indianapolis Center
Wed 05:11:54 PM 39.9861 -85.4028 73° East 468 539 39,000  Level Indianapolis Center
Wed 05:12:56 PM 40.0225 -85.2394 74° East 466 536 39,000  Level Indianapolis Center
Wed 05:13:57 PM 40.0608 -85.0731 73° East 471 542 39,000  Level Indianapolis Center
Wed 05:14:59 PM 40.0975 -84.9081 74° East 469 540 39,000  Level Indianapolis Center
Wed 05:16:01 PM 40.1350 -84.7408 74° East 474 545 39,000  Level Indianapolis Center
Wed 05:17:03 PM 40.1728 -84.5711 74° East 480 552 39,000  Level Indianapolis Center
Wed 05:18:05 PM 40.2092 -84.4011 74° East 480 552 39,000  Level Indianapolis Center
Wed 05:19:07 PM 40.2475 -84.2286 74° East 484 557 39,000  Level Indianapolis Center
Wed 05:20:08 PM 40.2869 -84.0578 73° East 485 558 39,000  Level Indianapolis Center
Wed 05:21:10 PM 40.3519 -83.9050 61° Northeast 474 545 39,000  Level Indianapolis Center
Wed 05:22:12 PM 40.4206 -83.7542 59° Northeast 475 547 39,000  Level Indianapolis Center
Wed 05:23:14 PM 40.5000 -83.5778 59° Northeast 474 545 39,000  Level Indianapolis Center
Wed 05:24:16 PM 40.5681 -83.4283 59° Northeast 471 542 39,000  Level Indianapolis Center
Wed 05:25:18 PM 40.6361 -83.2800 59° Northeast 469 540 39,000 -101 Level Indianapolis Center
Wed 05:26:15 PM 40.6947 -83.1519 59° Northeast 464 534 38,800 -615 Descending Cleveland Center
Wed 05:27:15 PM 40.7606 -83.0064 59° Northeast 464 534 37,800 -950 Descending Cleveland Center
Wed 05:28:15 PM 40.8261 -82.8553 60° Northeast 470 541 36,900 -400 Descending Cleveland Center
Wed 05:29:15 PM 40.8894 -82.7089 60° Northeast 463 533 37,000 50 Climbing Cleveland Center
Wed 05:30:15 PM 40.9569 -82.5600 59° Northeast 458 527 37,000  Level Cleveland Center
Wed 05:31:15 PM 41.0217 -82.4161 59° Northeast 458 527 37,000  Level Cleveland Center
Wed 05:32:15 PM 41.0867 -82.2664 60° Northeast 457 526 37,000  Level Cleveland Center
Wed 05:33:15 PM 41.1514 -82.1164 60° Northeast 457 526 37,000  Level Cleveland Center
Wed 05:34:15 PM 41.2200 -81.9633 59° Northeast 462 532 37,000  Level Cleveland Center
Wed 05:35:15 PM 41.2842 -81.8100 61° Northeast 462 532 37,000  Level Cleveland Center
Wed 05:36:15 PM 41.3419 -81.6561 63° Northeast 462 532 37,000  Level Cleveland Center
Wed 05:37:15 PM 41.3997 -81.4911 65° Northeast 462 532 37,000  Level Cleveland Center
Wed 05:38:15 PM 41.4550 -81.3339 65° Northeast 470 541 37,000  Level Cleveland Center
Wed 05:39:15 PM 41.5061 -81.1764 67° East 470 541 37,000  Level Cleveland Center
Wed 05:40:15 PM 41.5194 -80.9936 84° East 474 545 37,000  Level Cleveland Center
Wed 05:41:15 PM 41.5200 -80.8133 90° East 484 557 37,000  Level Cleveland Center
Wed 05:42:15 PM 41.5200 -80.6275 90° East 489 563 37,000  Level Cleveland Center
Wed 05:43:15 PM 41.5242 -80.4278 88° East 489 563 37,000  Level Cleveland Center
Wed 05:44:15 PM 41.5258 -80.2642 89° East 489 563 37,000  Level Cleveland Center
Wed 05:45:15 PM 41.5275 -80.0839 89° East 489 563 37,000  Level Cleveland Center
Wed 05:46:15 PM 41.5264 -79.9036 90° East 489 563 37,000  Level Cleveland Center
Wed 05:47:15 PM 41.5253 -79.7206 90° East 484 557 37,000  Level Cleveland Center
Wed 05:48:15 PM 41.5258 -79.5375 90° East 484 557 37,000 -600 Level Cleveland Center
Wed 05:49:15 PM 41.5261 -79.3572 90° East 489 563 35,800 -1,000 Descending Cleveland Center
Wed 05:50:15 PM 41.5261 -79.1769 90° East 489 563 35,000 -600 Descending Cleveland Center
Wed 05:51:15 PM 41.5258 -78.9994 90° East 484 557 34,600 -850 Descending Cleveland Center
Wed 05:52:15 PM 41.5211 -78.8164 92° East 484 557 33,300 -1,500 Descending Cleveland Center
Wed 05:53:15 PM 41.5203 -78.6419 90° East 478 550 31,600 -1,150 Descending Cleveland Center
Wed 05:54:15 PM 41.5192 -78.4617 90° East 473 544 31,000 -300 Descending Cleveland Center
Wed 05:55:15 PM 41.5158 -78.2842 91° East 478 550 31,000  Level Cleveland Center
Wed 05:56:35 PM 41.5147 -78.0550 90° East 478 550 31,000  Level New York Center
Wed 05:57:33 PM 41.5003 -77.8817 96° East 478 550 31,000  Level New York Center
Wed 05:58:34 PM 41.4756 -77.6989 100° East 483 556 31,000 -295 Level New York Center
Wed 05:59:35 PM 41.4481 -77.5244 102° East 488 562 30,400 -793 Descending New York Center
Wed 06:00:35 PM 41.4194 -77.3278 101° East 493 567 29,400 -1,008 Descending New York Center
Wed 06:01:34 PM 41.3936 -77.1511 101° East 493 567 28,400 -1,008 Descending New York Center
Wed 06:02:34 PM 41.3658 -76.9714 102° East 493 567 27,400 -689 Descending New York Center
Wed 06:03:36 PM 41.3392 -76.8003 102° East 493 567 27,000 -541 Descending New York Center
Wed 06:04:36 PM 41.2994 -76.6367 108° East 480 552 26,300 -1,525 Descending New York Center
Wed 06:05:34 PM 41.2531 -76.4753 111° Southeast 469 540 24,000 -2,339 Descending New York Center
Wed 06:06:34 PM 41.2161 -76.3314 109° East 464 534 21,700 -2,231 Descending New York Center
Wed 06:07:35 PM 41.1775 -76.1794 109° East 449 517 19,500 -1,701 Descending New York Center
Wed 06:08:48 PM 41.1272 -75.9964 110° East 414 476 17,900 -1,038 Descending New York Center
Wed 06:09:48 PM 41.0953 -75.8700 109° East 407 468 17,200 -1,311 Descending New York Center
Wed 06:10:47 PM 41.0536 -75.7211 110° East 396 456 15,300 -2,050 Descending New York Center
Wed 06:11:48 PM 41.0156 -75.5889 111° Southeast 391 450 13,100 -1,169 Descending New York Center
Wed 06:12:45 PM 40.9789 -75.4628 111° Southeast 378 435 13,000 -504 Descending New York Center
Wed 06:13:47 PM 40.9461 -75.3369 109° East 373 429 12,100 -1,279 Descending New York Center
Wed 06:14:47 PM 40.9114 -75.2164 111° Southeast 357 411 10,400 -1,322 Descending New York Center
Wed 06:15:45 PM 40.8803 -75.0992 109° East 351 404 9,500 -1,200 Descending New York Center
Wed 06:16:47 PM 40.8503 -75.0039 113° Southeast 328 377 8,000 -1,180 Descending New York Center
Wed 06:17:47 PM 40.8767 -74.9042 71° East 280 322 7,100 -500 Descending New York Center
Wed 06:18:47 PM 40.9133 -74.8103 63° Northeast 280 322 7,000 -50 Descending New York Center
Wed 06:19:48 PM 40.9542 -74.7108 61° Northeast 280 322 7,000  Level New York Center
Wed 06:20:45 PM 40.9675 -74.6267 78° East 261 300 7,000 -450 Level New York Center
Wed 06:21:48 PM 40.8850 -74.5972 165° South 224 258 6,100 -545 Descending New York Center
Wed 06:22:24 PM 40.8333 -74.5833 169° South 287 330 6,100  Level New York TRACON
Wed 06:23:30 PM 40.7500 -74.5833 180° South 280 322 6,100  Level New York TRACON
Wed 06:24:30 PM 40.6667 -74.5667 171° South 287 330 6,100 -50 Level New York TRACON
Wed 06:25:30 PM 40.5833 -74.5667 180° South 279 321 6,000 -50 Descending New York TRACON
Wed 06:26:30 PM 40.5333 -74.5500 166° South 224 258 6,000  Level New York TRACON
Wed 06:27:36 PM 40.4667 -74.5500 180° South 210 242 6,000 -429 Level New York TRACON
Wed 06:28:36 PM 40.4000 -74.5333 169° South 211 243 5,100 -800 Descending New York TRACON
Wed 06:29:36 PM 40.3833 -74.4833 114° Southeast 196 226 4,400 -684 Descending New York TRACON
Wed 06:30:30 PM 40.3833 -74.4167 90° East 191 220 3,800 -650 Descending New York TRACON
Wed 06:31:36 PM 40.4000 -74.3500 72° East 200 230 3,100 -333 Descending New York TRACON
Wed 06:32:36 PM 40.4500 -74.3167 27° Northeast 188 216 3,100  Level New York TRACON
Wed 06:33:36 PM 40.5000 -74.2833 27° Northeast 192 221 3,100 -50 Level New York TRACON
Wed 06:34:36 PM 40.5500 -74.2667 14° North 188 216 3,000 -550 Descending New York TRACON
Wed 06:35:36 PM 40.6000 -74.2333 27° Northeast 190 219 2,000 -950 Descending New York TRACON
Wed 06:36:36 PM 40.6333 -74.2000 37° Northeast 146 168 1,100 -800 Descending New York TRACON
Wed 06:37:36 PM 40.6667 -74.1833 21° North 131 151 400 -700 Descending New York TRACON
Wed 06:39:00 PM 40.6833 -74.1667 102° East  Level FlightAware Approximate

Login

Don't have an account? Register now (free) for customized features, flight alerts, and more!